Navios*hios — SXJH — position and weather

sailwx.info

Track history (hours):
 
Tides and Currents Weather Stations Pressure Air Temp Water Temp Dewpoint Dewpoint Depression Visibility Wind Speed Wind Dir Waves Ship Positions

Navios*hios

Last reported at 2014-Jul-20 22:10 UTC. Time now 2014-Jul-24 04:21 UTC.
Position N 37°15' W 000°31'.

Length 183 m; draft 11 m.

Type: Cargo ship. MMSI: 240149000.

Date/timePositionNaut miles runAvg speedWind from/ knotsBaromVisibWave heightAir tempDewpointWater temp
2014-Jul-20 22:10N 37°15' W 000°31'711.7
2014-Jul-20 21:33N 37°15' W 000°21'1411.4
2014-Jul-20 20:18N 37°16' W 000°04'1111.4
2014-Jul-20 19:20N 37°17' E 000°10'1211.5
2014-Jul-20 18:17N 37°17' E 000°25'11211.5
2014-Jul-20 08:32N 37°24' E 002°47'1010.5
2014-Jul-20 07:33N 37°25' E 002°59'1210.9
2014-Jul-20 06:27N 37°25' E 003°15'2211.5
2014-Jul-20 04:33N 37°27' E 003°42'1212.3
2014-Jul-20 03:33N 37°27' E 003°57'1312.4
2014-Jul-20 02:33N 37°28' E 004°13'1212.4
2014-Jul-20 01:33N 37°29' E 004°29'1312.2
2014-Jul-20 00:31N 37°30' E 004°45'3912.6
2014-Jul-19 21:27N 37°32' E 005°33'1213.1
2014-Jul-19 20:32N 37°35' E 005°48'1110.5
2014-Jul-19 19:30N 37°40' E 006°01'6 5.9
2014-Jul-19 18:28N 37°34' E 006°03'1212.6
2014-Jul-19 17:31N 37°34' E 006°18'2613.0
2014-Jul-19 15:32N 37°35' E 006°51'1514.3
2014-Jul-19 14:30N 37°37' E 007°09'1712.6
2014-Jul-19 13:11N 37°38' E 007°30'1212.8
2014-Jul-19 12:14N 37°39' E 007°46'16711.3
2014-Jul-18 21:30N 37°26' E 011°16'3012.8
2014-Jul-18 19:09N 37°17' E 011°52'4512.1
2014-Jul-18 15:28N 37°05' E 012°46'1011.5
2014-Jul-18 14:33N 37°02' E 012°58'1211.9
2014-Jul-18 13:33N 36°58' E 013°13'1212.2
2014-Jul-18 12:33N 36°55' E 013°27'1212.4
2014-Jul-18 11:33N 36°51' E 013°42'1212.4
2014-Jul-18 10:33N 36°48' E 013°57'1312.7
2014-Jul-18 09:33N 36°45' E 014°13'1312.8
2014-Jul-18 08:33N 36°42' E 014°28'1212.3
2014-Jul-18 07:33N 36°37' E 014°42'43312.0
2014-Jul-16 19:29N 36°49' E 023°43'3813.0
2014-Jul-16 16:31N 37°20' E 024°12'1412.8
2014-Jul-16 15:26N 37°31' E 024°22'1112.5
2014-Jul-16 14:33N 37°41' E 024°28'12813.5
2014-Jul-16 05:04N 39°36' E 025°40'6911.7
2014-Jul-15 23:10N 40°25' E 026°43'  
2014-Jul-12 01:27N 39°57' E 025°58'2111.0
2014-Jul-11 23:33N 39°38' E 025°44'7312.1
2014-Jul-11 17:30N 38°33' E 025°01'6012.1
2014-Jul-11 12:33N 37°38' E 024°30'1412.5
2014-Jul-11 11:24N 37°27' E 024°19'1011.8
2014-Jul-11 10:31N 37°19' E 024°11'1110.9
2014-Jul-11 09:32N 37°11' E 024°02'1111.3
2014-Jul-11 08:33N 37°02' E 023°54'1211.9
2014-Jul-11 07:31N 36°52' E 023°45'1111.8
2014-Jul-11 06:33N 36°43' E 023°36'1211.9
2014-Jul-11 05:33N 36°34' E 023°26'1611.7
2014-Jul-11 04:13N 36°21' E 023°14'  
Track history (hours):
 
Tides and Currents Weather Stations Pressure Air Temp Water Temp Dewpoint Dewpoint Depression Visibility Wind Speed Wind Dir Waves Ship Positions

Navios*hios

Last reported at 2014-Jul-20 22:10 UTC. Time now 2014-Jul-24 04:21 UTC.
Position N 37°15' W 000°31'.

Length 183 m; draft 11 m.

Type: Cargo ship. MMSI: 240149000.

Date/timePositionNaut miles runAvg speedWind from/ knotsBaromVisibWave heightAir tempDewpointWater temp
2014-Jul-20 22:10N 37°15' W 000°31'711.7
2014-Jul-20 21:33N 37°15' W 000°21'1411.4
2014-Jul-20 20:18N 37°16' W 000°04'1111.4
2014-Jul-20 19:20N 37°17' E 000°10'1211.5
2014-Jul-20 18:17N 37°17' E 000°25'11211.5
2014-Jul-20 08:32N 37°24' E 002°47'1010.5
2014-Jul-20 07:33N 37°25' E 002°59'1210.9
2014-Jul-20 06:27N 37°25' E 003°15'2211.5
2014-Jul-20 04:33N 37°27' E 003°42'1212.3
2014-Jul-20 03:33N 37°27' E 003°57'1312.4
2014-Jul-20 02:33N 37°28' E 004°13'1212.4
2014-Jul-20 01:33N 37°29' E 004°29'1312.2
2014-Jul-20 00:31N 37°30' E 004°45'3912.6
2014-Jul-19 21:27N 37°32' E 005°33'1213.1
2014-Jul-19 20:32N 37°35' E 005°48'1110.5
2014-Jul-19 19:30N 37°40' E 006°01'6 5.9
2014-Jul-19 18:28N 37°34' E 006°03'1212.6
2014-Jul-19 17:31N 37°34' E 006°18'2613.0
2014-Jul-19 15:32N 37°35' E 006°51'1514.3
2014-Jul-19 14:30N 37°37' E 007°09'1712.6
2014-Jul-19 13:11N 37°38' E 007°30'1212.8
2014-Jul-19 12:14N 37°39' E 007°46'16711.3
2014-Jul-18 21:30N 37°26' E 011°16'3012.8
2014-Jul-18 19:09N 37°17' E 011°52'4512.1
2014-Jul-18 15:28N 37°05' E 012°46'1011.5
2014-Jul-18 14:33N 37°02' E 012°58'1211.9
2014-Jul-18 13:33N 36°58' E 013°13'1212.2
2014-Jul-18 12:33N 36°55' E 013°27'1212.4
2014-Jul-18 11:33N 36°51' E 013°42'1212.4
2014-Jul-18 10:33N 36°48' E 013°57'1312.7
2014-Jul-18 09:33N 36°45' E 014°13'1312.8
2014-Jul-18 08:33N 36°42' E 014°28'1212.3
2014-Jul-18 07:33N 36°37' E 014°42'43312.0
2014-Jul-16 19:29N 36°49' E 023°43'3813.0
2014-Jul-16 16:31N 37°20' E 024°12'1412.8
2014-Jul-16 15:26N 37°31' E 024°22'1112.5
2014-Jul-16 14:33N 37°41' E 024°28'12813.5
2014-Jul-16 05:04N 39°36' E 025°40'6911.7
2014-Jul-15 23:10N 40°25' E 026°43'  
2014-Jul-12 01:27N 39°57' E 025°58'2111.0
2014-Jul-11 23:33N 39°38' E 025°44'7312.1
2014-Jul-11 17:30N 38°33' E 025°01'6012.1
2014-Jul-11 12:33N 37°38' E 024°30'1412.5
2014-Jul-11 11:24N 37°27' E 024°19'1011.8
2014-Jul-11 10:31N 37°19' E 024°11'1110.9
2014-Jul-11 09:32N 37°11' E 024°02'1111.3
2014-Jul-11 08:33N 37°02' E 023°54'1211.9
2014-Jul-11 07:31N 36°52' E 023°45'1111.8
2014-Jul-11 06:33N 36°43' E 023°36'1211.9
2014-Jul-11 05:33N 36°34' E 023°26'1611.7
2014-Jul-11 04:13N 36°21' E 023°14'  

Dump ship's entire track history